Terminal Aerodrome Forecast
Issued by NWS Bismarck, ND

Home | Current Version | Previous Version | Text Only | Print | Product List | Glossary On
Versions: 1 2 3 4 5 6 7 8 9 10 11 12 13 14 15 16
000
FTUS43 KBIS 240523
TAFISN
TAF
KISN 240523Z 2406/2506 29008KT P6SM SKC
     FM241900 26012KT P6SM FEW200 FEW250
     FM250000 27010KT P6SM FEW150 SCT250 WS020/28035KT=

USA.gov is the U.S. government's official web portal to all federal, state and local government web resources and services.